Архив погоды в Богучанах

Метеограмма Богучаны
Четверг, 29 Июня
Время местн. Темп Ветер Видим Явления Облачность нижн/средн/верх Атм. давл. Влжн Точка росы ВНГО R Сост. почвы Tg s
Напр Скр Прв ур.ст ур.м изм
04:00 +13.6° штиль 0 - 20 км - переменная облачность 747 758 +0.2 94% +12.6° более 2.5 км - - - -
01:00 +15.9° С,С-З 1 - 50 км - переменная облачность 746 758 +0.8 87% +13.8° более 2.5 км - - - -
Среда, 28 Июня
Время местн. Темп Ветер Видим Явления Облачность нижн/средн/верх Атм. давл. Влжн Точка росы ВНГО R Сост. почвы Tg s
Напр Скр Прв ур.ст ур.м изм
22:00 +21.2° С 1 - 20 км - переменная облачность 745 757 +0.5 69% +15.4° 1 км - - - -
19:00 +28.5° В 1 - 20 км - облачно 745 756 -0.2 38% +12.9° 1 км 0 - - -
16:00 +30.7° С 1 - 20 км - переменная облачность 745 756 -0.9 30% +11.2° 1 км - - - -
13:00 +28.7° С-З 1 - 20 км - переменная облачность 746 757 -0.8 37% +12.6° 1.5 км - - - -
10:00 +24.4° С-З 1 - 20 км - ясно 747 758 -0.2 59% +15.8° более 2.5 км - - - -
07:00 +15.7° С-З 1 - 20 км - ясно 747 759 +0.3 88% +13.8° более 2.5 км 0 Влажная (без луж) +13° -
04:00 +13.3° штиль 0 - 20 км - облачно с прояснениями 747 759 +0.6 96% +12.6° 1 км - - - -
01:00 +15.7° С-З 1 - 50 км - переменная облачность 746 758 +0.7 90% +14° 1 км - - - -
Вторник, 27 Июня
Время местн. Темп Ветер Видим Явления Облачность нижн/средн/верх Атм. давл. Влжн Точка росы ВНГО R Сост. почвы Tg s
Напр Скр Прв ур.ст ур.м изм
22:00 +19.2° штиль 0 - 20 км - преимущественно облачно 745 757 +0.6 82% +16° 1 км - - - -
19:00 +22.9° штиль 0 - 20 км - облачно с прояснениями 745 756 +0.3 62% +15.3° 1 км 6 - - -
16:00 +23.1° З,С-З 4 - 20 км - преимущественно облачно 744 756 -0.1 58% +14.5° 1 км - - - -
13:00 +21° З 2 - 20 км ливневый дождь преимущественно облачно 745 756 +0.4 87% +18.8° 1 км - - - -
10:00 +20.6° С-В 2 - 20 км небо без изменений {ливневые осадки} облачно с прояснениями 744 756 +0.2 84% +17.8° 1 км - - - -
07:00 +15.5° штиль 0 - 20 км небо без изменений {ливневые осадки} облачно 744 756 +0.2 96% +14.8° 1 км 3 Влажная (без луж) +18° -
04:00 +16° штиль 0 - 20 км небо без изменений {ливневые осадки} облачно 744 756 -0.1 96% +15.4° 1 км - - - -
01:00 +16.5° штиль 0 - 11 км слабый ливневый дождь облачно 744 756 +0.2 95% +15.7° 1 км - - - -
Понедельник, 26 Июня
Время местн. Темп Ветер Видим Явления Облачность нижн/средн/верх Атм. давл. Влжн Точка росы ВНГО R Сост. почвы Tg s
Напр Скр Прв ур.ст ур.м изм
22:00 +18.8° штиль 0 - 10 км слабый ливневый дождь облачно 744 755 +0.5 94% +17.8° 1 км - - - -
19:00 +21.2° З,С-З 1 - 10 км слабый ливневый дождь облачно 743 755 +1 77% +17.1° 1 км 0 - - -
16:00 +25.8° штиль 0 - 20 км - облачно 742 754 -0.3 51% +15° 1 км - - - -
13:00 +25.2° С-В 1 - 20 км - преимущественно облачно 743 754 -0.3 53% +14.9° 1 км - - - -
10:00 +23.2° С,С-З 1 - 20 км - облачно 743 754 +0.2 63% +15.8° 1 км - - - -
07:00 +17° штиль 0 - 20 км - облачно 743 754 +0.3 81% +13.7° более 2.5 км 0 Сухая (без трещин) +14° -
04:00 +13.3° штиль 0 - 20 км - незначительная облачность 742 754 +0.6 94% +12.4° более 2.5 км - - - -
01:00 +15.9° Ю,Ю-З 1 - 50 км - переменная облачность 742 753 +0.7 86% +13.6° 1 км - - - -